sensor_id;sensor_type;location;lat;lon;timestamp;P1;P2;P0
79689;PMS5003;69156;55.932;-3.238;2024-03-02T00:00:49;5.0;5.0;
79689;PMS5003;69156;55.932;-3.238;2024-03-02T00:03:15;4.0;2.0;
79689;PMS5003;69156;55.932;-3.238;2024-03-02T00:05:41;4.0;4.0;
79689;PMS5003;69156;55.932;-3.238;2024-03-02T00:08:07;4.0;4.0;
79689;PMS5003;69156;55.932;-3.238;2024-03-02T00:10:35;4.0;4.0;
79689;PMS5003;69156;55.932;-3.238;2024-03-02T00:13:02;2.0;2.0;
79689;PMS5003;69156;55.932;-3.238;2024-03-02T00:15:37;2.0;2.0;
79689;PMS5003;69156;55.932;-3.238;2024-03-02T00:18:06;5.0;5.0;
79689;PMS5003;69156;55.932;-3.238;2024-03-02T00:20:32;4.0;4.0;
79689;PMS5003;69156;55.932;-3.238;2024-03-02T00:23:00;2.0;1.0;
79689;PMS5003;69156;55.932;-3.238;2024-03-02T00:25:38;2.0;2.0;
79689;PMS5003;69156;55.932;-3.238;2024-03-02T00:28:04;4.0;2.0;
79689;PMS5003;69156;55.932;-3.238;2024-03-02T00:30:41;2.0;2.0;
79689;PMS5003;69156;55.932;-3.238;2024-03-02T00:33:30;1.0;1.0;
79689;PMS5003;69156;55.932;-3.238;2024-03-02T00:35:57;2.0;2.0;
79689;PMS5003;69156;55.932;-3.238;2024-03-02T00:38:23;2.0;1.0;
79689;PMS5003;69156;55.932;-3.238;2024-03-02T00:40:49;2.0;2.0;
79689;PMS5003;69156;55.932;-3.238;2024-03-02T00:43:24;4.0;2.0;
79689;PMS5003;69156;55.932;-3.238;2024-03-02T00:46:07;4.0;4.0;
79689;PMS5003;69156;55.932;-3.238;2024-03-02T00:48:32;5.0;4.0;
79689;PMS5003;69156;55.932;-3.238;2024-03-02T00:50:58;5.0;5.0;
79689;PMS5003;69156;55.932;-3.238;2024-03-02T00:53:24;5.0;4.0;
79689;PMS5003;69156;55.932;-3.238;2024-03-02T00:55:51;2.0;2.0;
79689;PMS5003;69156;55.932;-3.238;2024-03-02T00:58:17;4.0;4.0;
79689;PMS5003;69156;55.932;-3.238;2024-03-02T01:00:43;5.0;5.0;
79689;PMS5003;69156;55.932;-3.238;2024-03-02T01:03:09;2.0;2.0;
79689;PMS5003;69156;55.932;-3.238;2024-03-02T01:05:34;4.0;4.0;
79689;PMS5003;69156;55.932;-3.238;2024-03-02T01:08:00;4.0;4.0;
79689;PMS5003;69156;55.932;-3.238;2024-03-02T01:10:26;5.0;2.0;
79689;PMS5003;69156;55.932;-3.238;2024-03-02T01:12:52;6.0;6.0;
79689;PMS5003;69156;55.932;-3.238;2024-03-02T01:15:17;4.0;4.0;
79689;PMS5003;69156;55.932;-3.238;2024-03-02T01:17:43;4.0;4.0;
79689;PMS5003;69156;55.932;-3.238;2024-03-02T01:20:09;6.0;6.0;
79689;PMS5003;69156;55.932;-3.238;2024-03-02T01:22:35;5.0;5.0;
79689;PMS5003;69156;55.932;-3.238;2024-03-02T01:25:01;4.0;4.0;
79689;PMS5003;69156;55.932;-3.238;2024-03-02T01:27:27;6.0;6.0;
79689;PMS5003;69156;55.932;-3.238;2024-03-02T01:29:52;2.0;2.0;
79689;PMS5003;69156;55.932;-3.238;2024-03-02T01:32:18;5.0;4.0;
79689;PMS5003;69156;55.932;-3.238;2024-03-02T01:34:44;4.0;2.0;
79689;PMS5003;69156;55.932;-3.238;2024-03-02T01:37:09;6.0;5.0;
79689;PMS5003;69156;55.932;-3.238;2024-03-02T01:39:35;1.0;1.0;
79689;PMS5003;69156;55.932;-3.238;2024-03-02T01:42:00;1.0;1.0;
79689;PMS5003;69156;55.932;-3.238;2024-03-02T01:44:26;2.0;2.0;
79689;PMS5003;69156;55.932;-3.238;2024-03-02T01:46:52;2.0;2.0;
79689;PMS5003;69156;55.932;-3.238;2024-03-02T01:49:18;2.0;2.0;
79689;PMS5003;69156;55.932;-3.238;2024-03-02T01:51:43;1.0;1.0;
79689;PMS5003;69156;55.932;-3.238;2024-03-02T01:54:09;4.0;4.0;
79689;PMS5003;69156;55.932;-3.238;2024-03-02T01:56:35;2.0;2.0;
79689;PMS5003;69156;55.932;-3.238;2024-03-02T01:59:01;4.0;2.0;
79689;PMS5003;69156;55.932;-3.238;2024-03-02T02:01:26;2.0;2.0;
79689;PMS5003;69156;55.932;-3.238;2024-03-02T02:03:52;4.0;2.0;
79689;PMS5003;69156;55.932;-3.238;2024-03-02T02:06:18;1.0;1.0;
79689;PMS5003;69156;55.932;-3.238;2024-03-02T02:08:44;5.0;5.0;
79689;PMS5003;69156;55.932;-3.238;2024-03-02T02:11:09;4.0;2.0;
79689;PMS5003;69156;55.932;-3.238;2024-03-02T02:13:35;0.0;0.0;
79689;PMS5003;69156;55.932;-3.238;2024-03-02T02:16:04;0.0;0.0;
79689;PMS5003;69156;55.932;-3.238;2024-03-02T02:18:30;1.0;1.0;
79689;PMS5003;69156;55.932;-3.238;2024-03-02T02:20:56;1.0;1.0;
79689;PMS5003;69156;55.932;-3.238;2024-03-02T02:23:21;0.0;0.0;
79689;PMS5003;69156;55.932;-3.238;2024-03-02T02:25:47;0.0;0.0;
79689;PMS5003;69156;55.932;-3.238;2024-03-02T02:28:13;0.0;0.0;
79689;PMS5003;69156;55.932;-3.238;2024-03-02T02:30:38;0.0;0.0;
79689;PMS5003;69156;55.932;-3.238;2024-03-02T02:33:04;0.0;0.0;
79689;PMS5003;69156;55.932;-3.238;2024-03-02T02:35:30;0.0;0.0;
79689;PMS5003;69156;55.932;-3.238;2024-03-02T02:37:55;0.0;0.0;
79689;PMS5003;69156;55.932;-3.238;2024-03-02T02:40:23;0.0;0.0;
79689;PMS5003;69156;55.932;-3.238;2024-03-02T02:42:49;0.0;0.0;
79689;PMS5003;69156;55.932;-3.238;2024-03-02T02:45:15;0.0;0.0;
79689;PMS5003;69156;55.932;-3.238;2024-03-02T02:47:41;1.0;0.0;
79689;PMS5003;69156;55.932;-3.238;2024-03-02T02:50:07;0.0;0.0;
79689;PMS5003;69156;55.932;-3.238;2024-03-02T02:52:34;0.0;0.0;
79689;PMS5003;69156;55.932;-3.238;2024-03-02T02:55:01;0.0;0.0;
79689;PMS5003;69156;55.932;-3.238;2024-03-02T02:57:28;1.0;1.0;
79689;PMS5003;69156;55.932;-3.238;2024-03-02T02:59:54;1.0;1.0;
79689;PMS5003;69156;55.932;-3.238;2024-03-02T03:02:19;1.0;1.0;
79689;PMS5003;69156;55.932;-3.238;2024-03-02T03:04:45;0.0;0.0;
79689;PMS5003;69156;55.932;-3.238;2024-03-02T03:07:11;1.0;1.0;
79689;PMS5003;69156;55.932;-3.238;2024-03-02T03:09:37;1.0;1.0;
79689;PMS5003;69156;55.932;-3.238;2024-03-02T03:12:02;0.0;0.0;
79689;PMS5003;69156;55.932;-3.238;2024-03-02T03:14:28;1.0;1.0;
79689;PMS5003;69156;55.932;-3.238;2024-03-02T03:16:54;1.0;1.0;
79689;PMS5003;69156;55.932;-3.238;2024-03-02T03:19:20;2.0;1.0;
79689;PMS5003;69156;55.932;-3.238;2024-03-02T03:21:45;0.0;0.0;
79689;PMS5003;69156;55.932;-3.238;2024-03-02T03:24:11;1.0;1.0;
79689;PMS5003;69156;55.932;-3.238;2024-03-02T03:26:37;2.0;2.0;
79689;PMS5003;69156;55.932;-3.238;2024-03-02T03:29:02;2.0;2.0;
79689;PMS5003;69156;55.932;-3.238;2024-03-02T03:31:28;1.0;1.0;
79689;PMS5003;69156;55.932;-3.238;2024-03-02T03:33:54;1.0;1.0;
79689;PMS5003;69156;55.932;-3.238;2024-03-02T03:36:20;2.0;2.0;
79689;PMS5003;69156;55.932;-3.238;2024-03-02T03:38:45;1.0;1.0;
79689;PMS5003;69156;55.932;-3.238;2024-03-02T03:41:11;1.0;1.0;
79689;PMS5003;69156;55.932;-3.238;2024-03-02T03:43:36;2.0;2.0;
79689;PMS5003;69156;55.932;-3.238;2024-03-02T03:46:02;1.0;1.0;
79689;PMS5003;69156;55.932;-3.238;2024-03-02T03:48:28;1.0;1.0;
79689;PMS5003;69156;55.932;-3.238;2024-03-02T03:50:54;4.0;4.0;
79689;PMS5003;69156;55.932;-3.238;2024-03-02T03:53:19;2.0;2.0;
79689;PMS5003;69156;55.932;-3.238;2024-03-02T03:55:45;2.0;2.0;
79689;PMS5003;69156;55.932;-3.238;2024-03-02T03:58:11;1.0;1.0;
79689;PMS5003;69156;55.932;-3.238;2024-03-02T04:00:36;2.0;2.0;
79689;PMS5003;69156;55.932;-3.238;2024-03-02T04:03:02;2.0;2.0;
79689;PMS5003;69156;55.932;-3.238;2024-03-02T04:05:28;2.0;2.0;
79689;PMS5003;69156;55.932;-3.238;2024-03-02T04:07:54;2.0;2.0;
79689;PMS5003;69156;55.932;-3.238;2024-03-02T04:10:20;2.0;2.0;
79689;PMS5003;69156;55.932;-3.238;2024-03-02T04:12:45;2.0;2.0;
79689;PMS5003;69156;55.932;-3.238;2024-03-02T04:15:11;2.0;2.0;
79689;PMS5003;69156;55.932;-3.238;2024-03-02T04:17:36;1.0;1.0;
79689;PMS5003;69156;55.932;-3.238;2024-03-02T04:20:02;1.0;1.0;
79689;PMS5003;69156;55.932;-3.238;2024-03-02T04:22:28;2.0;2.0;
79689;PMS5003;69156;55.932;-3.238;2024-03-02T04:24:54;0.0;0.0;
79689;PMS5003;69156;55.932;-3.238;2024-03-02T04:27:20;2.0;2.0;
79689;PMS5003;69156;55.932;-3.238;2024-03-02T04:29:45;4.0;2.0;
79689;PMS5003;69156;55.932;-3.238;2024-03-02T04:32:11;1.0;1.0;
79689;PMS5003;69156;55.932;-3.238;2024-03-02T04:34:37;1.0;1.0;
79689;PMS5003;69156;55.932;-3.238;2024-03-02T04:37:02;1.0;1.0;
79689;PMS5003;69156;55.932;-3.238;2024-03-02T04:39:28;1.0;1.0;
79689;PMS5003;69156;55.932;-3.238;2024-03-02T04:41:54;1.0;1.0;
79689;PMS5003;69156;55.932;-3.238;2024-03-02T04:44:19;4.0;4.0;
79689;PMS5003;69156;55.932;-3.238;2024-03-02T04:46:45;2.0;2.0;
79689;PMS5003;69156;55.932;-3.238;2024-03-02T04:49:11;1.0;1.0;
79689;PMS5003;69156;55.932;-3.238;2024-03-02T04:51:36;1.0;1.0;
79689;PMS5003;69156;55.932;-3.238;2024-03-02T04:54:02;1.0;1.0;
79689;PMS5003;69156;55.932;-3.238;2024-03-02T04:56:28;1.0;1.0;
79689;PMS5003;69156;55.932;-3.238;2024-03-02T04:58:53;1.0;1.0;
79689;PMS5003;69156;55.932;-3.238;2024-03-02T05:01:19;2.0;2.0;
79689;PMS5003;69156;55.932;-3.238;2024-03-02T05:03:45;1.0;1.0;
79689;PMS5003;69156;55.932;-3.238;2024-03-02T05:06:10;0.0;0.0;
79689;PMS5003;69156;55.932;-3.238;2024-03-02T05:08:36;1.0;1.0;
79689;PMS5003;69156;55.932;-3.238;2024-03-02T05:11:02;1.0;1.0;
79689;PMS5003;69156;55.932;-3.238;2024-03-02T05:13:27;1.0;1.0;
79689;PMS5003;69156;55.932;-3.238;2024-03-02T05:15:53;1.0;0.0;
79689;PMS5003;69156;55.932;-3.238;2024-03-02T05:18:19;1.0;1.0;
79689;PMS5003;69156;55.932;-3.238;2024-03-02T05:20:44;1.0;1.0;
79689;PMS5003;69156;55.932;-3.238;2024-03-02T05:23:10;1.0;1.0;
79689;PMS5003;69156;55.932;-3.238;2024-03-02T05:25:36;0.0;0.0;
79689;PMS5003;69156;55.932;-3.238;2024-03-02T05:28:01;0.0;0.0;
79689;PMS5003;69156;55.932;-3.238;2024-03-02T05:30:27;0.0;0.0;
79689;PMS5003;69156;55.932;-3.238;2024-03-02T05:32:53;2.0;2.0;
79689;PMS5003;69156;55.932;-3.238;2024-03-02T05:35:18;1.0;1.0;
79689;PMS5003;69156;55.932;-3.238;2024-03-02T05:37:44;1.0;1.0;
79689;PMS5003;69156;55.932;-3.238;2024-03-02T05:40:10;1.0;1.0;
79689;PMS5003;69156;55.932;-3.238;2024-03-02T05:42:36;0.0;0.0;
79689;PMS5003;69156;55.932;-3.238;2024-03-02T05:45:01;1.0;1.0;
79689;PMS5003;69156;55.932;-3.238;2024-03-02T05:47:27;2.0;2.0;
79689;PMS5003;69156;55.932;-3.238;2024-03-02T05:49:53;1.0;1.0;
79689;PMS5003;69156;55.932;-3.238;2024-03-02T05:52:19;1.0;1.0;
79689;PMS5003;69156;55.932;-3.238;2024-03-02T05:54:44;1.0;1.0;
79689;PMS5003;69156;55.932;-3.238;2024-03-02T05:57:10;2.0;2.0;
79689;PMS5003;69156;55.932;-3.238;2024-03-02T05:59:36;1.0;1.0;
79689;PMS5003;69156;55.932;-3.238;2024-03-02T06:02:01;0.0;0.0;
79689;PMS5003;69156;55.932;-3.238;2024-03-02T06:04:27;1.0;1.0;
79689;PMS5003;69156;55.932;-3.238;2024-03-02T06:06:53;2.0;1.0;
79689;PMS5003;69156;55.932;-3.238;2024-03-02T06:09:18;2.0;2.0;
79689;PMS5003;69156;55.932;-3.238;2024-03-02T06:11:44;1.0;1.0;
79689;PMS5003;69156;55.932;-3.238;2024-03-02T06:14:10;2.0;2.0;
79689;PMS5003;69156;55.932;-3.238;2024-03-02T06:16:35;2.0;2.0;
79689;PMS5003;69156;55.932;-3.238;2024-03-02T06:19:01;1.0;1.0;
79689;PMS5003;69156;55.932;-3.238;2024-03-02T06:21:27;2.0;2.0;
79689;PMS5003;69156;55.932;-3.238;2024-03-02T06:23:53;5.0;5.0;
79689;PMS5003;69156;55.932;-3.238;2024-03-02T06:26:19;6.0;6.0;
79689;PMS5003;69156;55.932;-3.238;2024-03-02T06:28:45;6.0;6.0;
79689;PMS5003;69156;55.932;-3.238;2024-03-02T06:31:11;13.0;13.0;
79689;PMS5003;69156;55.932;-3.238;2024-03-02T06:33:36;13.0;13.0;
79689;PMS5003;69156;55.932;-3.238;2024-03-02T06:36:02;10.0;10.0;
79689;PMS5003;69156;55.932;-3.238;2024-03-02T06:38:29;14.0;14.0;
79689;PMS5003;69156;55.932;-3.238;2024-03-02T06:40:54;14.0;14.0;
79689;PMS5003;69156;55.932;-3.238;2024-03-02T06:43:20;14.0;14.0;
79689;PMS5003;69156;55.932;-3.238;2024-03-02T06:45:46;11.0;11.0;
79689;PMS5003;69156;55.932;-3.238;2024-03-02T06:48:11;13.0;13.0;
79689;PMS5003;69156;55.932;-3.238;2024-03-02T06:50:37;12.0;12.0;
79689;PMS5003;69156;55.932;-3.238;2024-03-02T06:53:03;21.0;20.0;
79689;PMS5003;69156;55.932;-3.238;2024-03-02T06:55:28;21.0;20.0;
79689;PMS5003;69156;55.932;-3.238;2024-03-02T06:57:54;18.0;16.0;
79689;PMS5003;69156;55.932;-3.238;2024-03-02T07:00:20;21.0;21.0;
79689;PMS5003;69156;55.932;-3.238;2024-03-02T07:02:46;24.0;21.0;
79689;PMS5003;69156;55.932;-3.238;2024-03-02T07:05:11;19.0;19.0;
79689;PMS5003;69156;55.932;-3.238;2024-03-02T07:07:37;21.0;20.0;
79689;PMS5003;69156;55.932;-3.238;2024-03-02T07:10:03;15.0;15.0;
79689;PMS5003;69156;55.932;-3.238;2024-03-02T07:12:29;16.0;15.0;
79689;PMS5003;69156;55.932;-3.238;2024-03-02T07:14:55;17.0;16.0;
79689;PMS5003;69156;55.932;-3.238;2024-03-02T07:17:21;10.0;10.0;
79689;PMS5003;69156;55.932;-3.238;2024-03-02T07:19:46;10.0;8.0;
79689;PMS5003;69156;55.932;-3.238;2024-03-02T07:22:12;11.0;8.0;
79689;PMS5003;69156;55.932;-3.238;2024-03-02T07:24:39;11.0;10.0;
79689;PMS5003;69156;55.932;-3.238;2024-03-02T07:27:05;10.0;8.0;
79689;PMS5003;69156;55.932;-3.238;2024-03-02T07:29:31;7.0;7.0;
79689;PMS5003;69156;55.932;-3.238;2024-03-02T07:31:57;8.0;8.0;
79689;PMS5003;69156;55.932;-3.238;2024-03-02T07:34:22;10.0;10.0;
79689;PMS5003;69156;55.932;-3.238;2024-03-02T07:36:48;11.0;11.0;
79689;PMS5003;69156;55.932;-3.238;2024-03-02T07:39:14;7.0;7.0;
79689;PMS5003;69156;55.932;-3.238;2024-03-02T07:41:39;10.0;10.0;
79689;PMS5003;69156;55.932;-3.238;2024-03-02T07:44:05;8.0;8.0;
79689;PMS5003;69156;55.932;-3.238;2024-03-02T07:46:30;11.0;11.0;
79689;PMS5003;69156;55.932;-3.238;2024-03-02T07:48:56;11.0;11.0;
79689;PMS5003;69156;55.932;-3.238;2024-03-02T07:51:22;10.0;10.0;
79689;PMS5003;69156;55.932;-3.238;2024-03-02T07:53:47;8.0;8.0;
79689;PMS5003;69156;55.932;-3.238;2024-03-02T07:56:13;11.0;11.0;
79689;PMS5003;69156;55.932;-3.238;2024-03-02T07:58:39;12.0;11.0;
79689;PMS5003;69156;55.932;-3.238;2024-03-02T08:01:04;12.0;11.0;
79689;PMS5003;69156;55.932;-3.238;2024-03-02T08:03:30;11.0;10.0;
79689;PMS5003;69156;55.932;-3.238;2024-03-02T08:05:56;12.0;12.0;
79689;PMS5003;69156;55.932;-3.238;2024-03-02T08:08:22;13.0;12.0;
79689;PMS5003;69156;55.932;-3.238;2024-03-02T08:10:47;16.0;15.0;
79689;PMS5003;69156;55.932;-3.238;2024-03-02T08:13:13;14.0;14.0;
79689;PMS5003;69156;55.932;-3.238;2024-03-02T08:15:39;16.0;12.0;
79689;PMS5003;69156;55.932;-3.238;2024-03-02T08:18:04;12.0;12.0;
79689;PMS5003;69156;55.932;-3.238;2024-03-02T08:20:30;12.0;12.0;
79689;PMS5003;69156;55.932;-3.238;2024-03-02T08:22:56;15.0;15.0;
79689;PMS5003;69156;55.932;-3.238;2024-03-02T08:25:21;15.0;13.0;
79689;PMS5003;69156;55.932;-3.238;2024-03-02T08:27:47;15.0;15.0;
79689;PMS5003;69156;55.932;-3.238;2024-03-02T08:30:13;12.0;12.0;
79689;PMS5003;69156;55.932;-3.238;2024-03-02T08:32:39;15.0;15.0;
79689;PMS5003;69156;55.932;-3.238;2024-03-02T08:35:05;15.0;15.0;
79689;PMS5003;69156;55.932;-3.238;2024-03-02T08:37:31;14.0;12.0;
79689;PMS5003;69156;55.932;-3.238;2024-03-02T08:39:57;11.0;11.0;
79689;PMS5003;69156;55.932;-3.238;2024-03-02T08:42:23;12.0;12.0;
79689;PMS5003;69156;55.932;-3.238;2024-03-02T08:44:49;15.0;15.0;
79689;PMS5003;69156;55.932;-3.238;2024-03-02T08:47:14;11.0;11.0;
79689;PMS5003;69156;55.932;-3.238;2024-03-02T08:49:40;12.0;11.0;
79689;PMS5003;69156;55.932;-3.238;2024-03-02T08:52:06;14.0;12.0;
79689;PMS5003;69156;55.932;-3.238;2024-03-02T08:54:31;14.0;14.0;
79689;PMS5003;69156;55.932;-3.238;2024-03-02T08:56:57;9.0;9.0;
79689;PMS5003;69156;55.932;-3.238;2024-03-02T08:59:23;14.0;11.0;
79689;PMS5003;69156;55.932;-3.238;2024-03-02T09:01:48;11.0;11.0;
79689;PMS5003;69156;55.932;-3.238;2024-03-02T09:04:14;11.0;11.0;
79689;PMS5003;69156;55.932;-3.238;2024-03-02T09:06:39;16.0;15.0;
79689;PMS5003;69156;55.932;-3.238;2024-03-02T09:09:05;9.0;9.0;
79689;PMS5003;69156;55.932;-3.238;2024-03-02T09:11:31;10.0;10.0;
79689;PMS5003;69156;55.932;-3.238;2024-03-02T09:13:57;14.0;12.0;
79689;PMS5003;69156;55.932;-3.238;2024-03-02T09:16:22;12.0;11.0;
79689;PMS5003;69156;55.932;-3.238;2024-03-02T09:18:48;12.0;12.0;
79689;PMS5003;69156;55.932;-3.238;2024-03-02T09:21:14;14.0;12.0;
79689;PMS5003;69156;55.932;-3.238;2024-03-02T09:23:39;11.0;11.0;
79689;PMS5003;69156;55.932;-3.238;2024-03-02T09:26:05;10.0;10.0;
79689;PMS5003;69156;55.932;-3.238;2024-03-02T09:28:31;9.0;9.0;
79689;PMS5003;69156;55.932;-3.238;2024-03-02T09:30:56;11.0;11.0;
79689;PMS5003;69156;55.932;-3.238;2024-03-02T09:33:22;11.0;10.0;
79689;PMS5003;69156;55.932;-3.238;2024-03-02T09:35:48;7.0;7.0;
79689;PMS5003;69156;55.932;-3.238;2024-03-02T09:38:13;6.0;6.0;
79689;PMS5003;69156;55.932;-3.238;2024-03-02T09:40:41;9.0;9.0;
79689;PMS5003;69156;55.932;-3.238;2024-03-02T09:43:07;7.0;6.0;
79689;PMS5003;69156;55.932;-3.238;2024-03-02T09:45:33;9.0;9.0;
79689;PMS5003;69156;55.932;-3.238;2024-03-02T09:47:59;6.0;6.0;
79689;PMS5003;69156;55.932;-3.238;2024-03-02T09:50:25;9.0;7.0;
79689;PMS5003;69156;55.932;-3.238;2024-03-02T09:52:50;6.0;6.0;
79689;PMS5003;69156;55.932;-3.238;2024-03-02T09:55:18;6.0;6.0;
79689;PMS5003;69156;55.932;-3.238;2024-03-02T09:57:44;9.0;9.0;
79689;PMS5003;69156;55.932;-3.238;2024-03-02T10:00:11;9.0;9.0;
79689;PMS5003;69156;55.932;-3.238;2024-03-02T10:02:37;10.0;10.0;
79689;PMS5003;69156;55.932;-3.238;2024-03-02T10:05:03;10.0;10.0;
79689;PMS5003;69156;55.932;-3.238;2024-03-02T10:07:29;9.0;9.0;
79689;PMS5003;69156;55.932;-3.238;2024-03-02T10:09:54;9.0;9.0;
79689;PMS5003;69156;55.932;-3.238;2024-03-02T10:12:20;10.0;10.0;
79689;PMS5003;69156;55.932;-3.238;2024-03-02T10:14:45;9.0;9.0;
79689;PMS5003;69156;55.932;-3.238;2024-03-02T10:17:12;10.0;10.0;
79689;PMS5003;69156;55.932;-3.238;2024-03-02T10:19:39;10.0;10.0;
79689;PMS5003;69156;55.932;-3.238;2024-03-02T10:22:05;9.0;9.0;
79689;PMS5003;69156;55.932;-3.238;2024-03-02T10:24:35;11.0;10.0;
79689;PMS5003;69156;55.932;-3.238;2024-03-02T10:27:02;14.0;14.0;
79689;PMS5003;69156;55.932;-3.238;2024-03-02T10:29:32;11.0;10.0;
79689;PMS5003;69156;55.932;-3.238;2024-03-02T10:31:58;10.0;10.0;
79689;PMS5003;69156;55.932;-3.238;2024-03-02T10:34:27;15.0;14.0;
79689;PMS5003;69156;55.932;-3.238;2024-03-02T10:36:53;10.0;10.0;
79689;PMS5003;69156;55.932;-3.238;2024-03-02T10:39:20;9.0;9.0;
79689;PMS5003;69156;55.932;-3.238;2024-03-02T10:41:46;13.0;11.0;
79689;PMS5003;69156;55.932;-3.238;2024-03-02T10:44:14;11.0;11.0;
79689;PMS5003;69156;55.932;-3.238;2024-03-02T10:46:41;13.0;11.0;
79689;PMS5003;69156;55.932;-3.238;2024-03-02T10:49:10;10.0;10.0;
79689;PMS5003;69156;55.932;-3.238;2024-03-02T10:51:36;15.0;15.0;
79689;PMS5003;69156;55.932;-3.238;2024-03-02T10:54:02;10.0;9.0;
79689;PMS5003;69156;55.932;-3.238;2024-03-02T10:56:29;10.0;10.0;
79689;PMS5003;69156;55.932;-3.238;2024-03-02T10:58:59;15.0;14.0;
79689;PMS5003;69156;55.932;-3.238;2024-03-02T11:01:29;17.0;15.0;
79689;PMS5003;69156;55.932;-3.238;2024-03-02T11:03:56;15.0;15.0;
79689;PMS5003;69156;55.932;-3.238;2024-03-02T11:06:24;10.0;10.0;
79689;PMS5003;69156;55.932;-3.238;2024-03-02T11:08:53;13.0;11.0;
79689;PMS5003;69156;55.932;-3.238;2024-03-02T11:11:21;10.0;9.0;
79689;PMS5003;69156;55.932;-3.238;2024-03-02T11:13:53;15.0;15.0;
79689;PMS5003;69156;55.932;-3.238;2024-03-02T11:16:23;13.0;11.0;
79689;PMS5003;69156;55.932;-3.238;2024-03-02T11:18:56;11.0;11.0;
79689;PMS5003;69156;55.932;-3.238;2024-03-02T11:21:22;18.0;17.0;
79689;PMS5003;69156;55.932;-3.238;2024-03-02T11:23:48;14.0;11.0;
79689;PMS5003;69156;55.932;-3.238;2024-03-02T11:26:17;11.0;11.0;
79689;PMS5003;69156;55.932;-3.238;2024-03-02T11:28:42;11.0;11.0;
79689;PMS5003;69156;55.932;-3.238;2024-03-02T11:31:08;18.0;16.0;
79689;PMS5003;69156;55.932;-3.238;2024-03-02T11:33:34;19.0;19.0;
79689;PMS5003;69156;55.932;-3.238;2024-03-02T11:35:59;13.0;13.0;
79689;PMS5003;69156;55.932;-3.238;2024-03-02T11:38:33;13.0;13.0;
79689;PMS5003;69156;55.932;-3.238;2024-03-02T11:41:00;11.0;11.0;
79689;PMS5003;69156;55.932;-3.238;2024-03-02T11:43:27;14.0;14.0;
79689;PMS5003;69156;55.932;-3.238;2024-03-02T11:45:58;15.0;15.0;
79689;PMS5003;69156;55.932;-3.238;2024-03-02T11:48:24;13.0;11.0;
79689;PMS5003;69156;55.932;-3.238;2024-03-02T11:50:50;14.0;13.0;
79689;PMS5003;69156;55.932;-3.238;2024-03-02T11:53:16;15.0;14.0;
79689;PMS5003;69156;55.932;-3.238;2024-03-02T11:55:43;16.0;14.0;
79689;PMS5003;69156;55.932;-3.238;2024-03-02T11:58:10;14.0;13.0;
79689;PMS5003;69156;55.932;-3.238;2024-03-02T12:00:36;10.0;10.0;
79689;PMS5003;69156;55.932;-3.238;2024-03-02T12:03:02;13.0;11.0;
79689;PMS5003;69156;55.932;-3.238;2024-03-02T12:05:30;16.0;15.0;
79689;PMS5003;69156;55.932;-3.238;2024-03-02T12:07:56;22.0;18.0;
79689;PMS5003;69156;55.932;-3.238;2024-03-02T12:10:22;14.0;14.0;
79689;PMS5003;69156;55.932;-3.238;2024-03-02T12:12:51;16.0;15.0;
79689;PMS5003;69156;55.932;-3.238;2024-03-02T12:15:22;16.0;15.0;
79689;PMS5003;69156;55.932;-3.238;2024-03-02T12:17:48;14.0;12.0;
79689;PMS5003;69156;55.932;-3.238;2024-03-02T12:20:17;15.0;15.0;
79689;PMS5003;69156;55.932;-3.238;2024-03-02T12:22:43;14.0;14.0;
79689;PMS5003;69156;55.932;-3.238;2024-03-02T12:25:08;12.0;12.0;
79689;PMS5003;69156;55.932;-3.238;2024-03-02T12:27:34;14.0;14.0;
79689;PMS5003;69156;55.932;-3.238;2024-03-02T12:30:00;16.0;16.0;
79689;PMS5003;69156;55.932;-3.238;2024-03-02T12:32:26;15.0;14.0;
79689;PMS5003;69156;55.932;-3.238;2024-03-02T12:34:51;15.0;14.0;
79689;PMS5003;69156;55.932;-3.238;2024-03-02T12:37:17;15.0;15.0;
79689;PMS5003;69156;55.932;-3.238;2024-03-02T12:39:44;20.0;18.0;
79689;PMS5003;69156;55.932;-3.238;2024-03-02T12:42:10;16.0;15.0;
79689;PMS5003;69156;55.932;-3.238;2024-03-02T12:44:35;16.0;15.0;
79689;PMS5003;69156;55.932;-3.238;2024-03-02T12:47:01;16.0;14.0;
79689;PMS5003;69156;55.932;-3.238;2024-03-02T12:49:27;14.0;14.0;
79689;PMS5003;69156;55.932;-3.238;2024-03-02T12:51:52;16.0;15.0;
79689;PMS5003;69156;55.932;-3.238;2024-03-02T12:54:18;16.0;15.0;
79689;PMS5003;69156;55.932;-3.238;2024-03-02T12:56:47;14.0;12.0;
79689;PMS5003;69156;55.932;-3.238;2024-03-02T12:59:17;15.0;14.0;
79689;PMS5003;69156;55.932;-3.238;2024-03-02T13:01:49;23.0;20.0;
79689;PMS5003;69156;55.932;-3.238;2024-03-02T13:04:15;16.0;16.0;
79689;PMS5003;69156;55.932;-3.238;2024-03-02T13:06:41;18.0;15.0;
79689;PMS5003;69156;55.932;-3.238;2024-03-02T13:09:06;11.0;11.0;
79689;PMS5003;69156;55.932;-3.238;2024-03-02T13:11:32;23.0;21.0;
79689;PMS5003;69156;55.932;-3.238;2024-03-02T13:14:00;17.0;17.0;
79689;PMS5003;69156;55.932;-3.238;2024-03-02T13:16:25;14.0;14.0;
79689;PMS5003;69156;55.932;-3.238;2024-03-02T13:18:51;23.0;20.0;
79689;PMS5003;69156;55.932;-3.238;2024-03-02T13:21:16;18.0;18.0;
79689;PMS5003;69156;55.932;-3.238;2024-03-02T13:23:42;16.0;15.0;
79689;PMS5003;69156;55.932;-3.238;2024-03-02T13:26:08;20.0;18.0;
79689;PMS5003;69156;55.932;-3.238;2024-03-02T13:28:33;18.0;16.0;
79689;PMS5003;69156;55.932;-3.238;2024-03-02T13:30:59;17.0;16.0;
79689;PMS5003;69156;55.932;-3.238;2024-03-02T13:33:25;17.0;16.0;
79689;PMS5003;69156;55.932;-3.238;2024-03-02T13:35:50;19.0;17.0;
79689;PMS5003;69156;55.932;-3.238;2024-03-02T13:38:16;16.0;16.0;
79689;PMS5003;69156;55.932;-3.238;2024-03-02T13:40:42;15.0;14.0;
79689;PMS5003;69156;55.932;-3.238;2024-03-02T13:43:08;16.0;15.0;
79689;PMS5003;69156;55.932;-3.238;2024-03-02T13:45:34;15.0;15.0;
79689;PMS5003;69156;55.932;-3.238;2024-03-02T13:48:00;17.0;16.0;
79689;PMS5003;69156;55.932;-3.238;2024-03-02T13:50:25;21.0;19.0;
79689;PMS5003;69156;55.932;-3.238;2024-03-02T13:52:51;16.0;15.0;
79689;PMS5003;69156;55.932;-3.238;2024-03-02T13:55:16;15.0;14.0;
79689;PMS5003;69156;55.932;-3.238;2024-03-02T13:57:42;14.0;12.0;
79689;PMS5003;69156;55.932;-3.238;2024-03-02T14:00:08;12.0;12.0;
79689;PMS5003;69156;55.932;-3.238;2024-03-02T14:02:34;13.0;13.0;
79689;PMS5003;69156;55.932;-3.238;2024-03-02T14:05:00;13.0;13.0;
79689;PMS5003;69156;55.932;-3.238;2024-03-02T14:07:25;17.0;16.0;
79689;PMS5003;69156;55.932;-3.238;2024-03-02T14:09:51;16.0;15.0;
79689;PMS5003;69156;55.932;-3.238;2024-03-02T14:12:16;12.0;12.0;
79689;PMS5003;69156;55.932;-3.238;2024-03-02T14:14:42;15.0;15.0;
79689;PMS5003;69156;55.932;-3.238;2024-03-02T14:17:08;15.0;13.0;
79689;PMS5003;69156;55.932;-3.238;2024-03-02T14:19:34;11.0;11.0;
79689;PMS5003;69156;55.932;-3.238;2024-03-02T14:21:59;17.0;16.0;
79689;PMS5003;69156;55.932;-3.238;2024-03-02T14:24:25;14.0;13.0;
79689;PMS5003;69156;55.932;-3.238;2024-03-02T14:26:50;12.0;12.0;
79689;PMS5003;69156;55.932;-3.238;2024-03-02T14:29:16;12.0;12.0;
79689;PMS5003;69156;55.932;-3.238;2024-03-02T14:31:42;11.0;11.0;
79689;PMS5003;69156;55.932;-3.238;2024-03-02T14:34:07;11.0;11.0;
79689;PMS5003;69156;55.932;-3.238;2024-03-02T14:36:33;14.0;14.0;
79689;PMS5003;69156;55.932;-3.238;2024-03-02T14:38:59;17.0;13.0;
79689;PMS5003;69156;55.932;-3.238;2024-03-02T14:41:24;14.0;13.0;
79689;PMS5003;69156;55.932;-3.238;2024-03-02T14:43:50;13.0;13.0;
79689;PMS5003;69156;55.932;-3.238;2024-03-02T14:46:16;12.0;12.0;
79689;PMS5003;69156;55.932;-3.238;2024-03-02T14:48:43;16.0;14.0;
79689;PMS5003;69156;55.932;-3.238;2024-03-02T14:51:09;12.0;11.0;
79689;PMS5003;69156;55.932;-3.238;2024-03-02T14:53:35;13.0;12.0;
79689;PMS5003;69156;55.932;-3.238;2024-03-02T14:56:01;11.0;9.0;
79689;PMS5003;69156;55.932;-3.238;2024-03-02T14:58:26;15.0;15.0;
79689;PMS5003;69156;55.932;-3.238;2024-03-02T15:00:52;14.0;13.0;
79689;PMS5003;69156;55.932;-3.238;2024-03-02T15:03:17;14.0;14.0;
79689;PMS5003;69156;55.932;-3.238;2024-03-02T15:05:43;14.0;14.0;
79689;PMS5003;69156;55.932;-3.238;2024-03-02T15:08:09;13.0;12.0;
79689;PMS5003;69156;55.932;-3.238;2024-03-02T15:10:35;14.0;13.0;